createdAt,value
2024-02-13T00:00:40.663Z,100.00
2024-02-13T00:03:07.303Z,100.00
2024-02-13T00:05:34.456Z,100.00
2024-02-13T00:08:01.967Z,100.00
2024-02-13T00:10:29.858Z,100.00
2024-02-13T00:12:57.159Z,100.00
2024-02-13T00:15:23.905Z,100.00
2024-02-13T00:17:52.370Z,100.00
2024-02-13T00:20:19.407Z,100.00
2024-02-13T00:22:48.825Z,100.00
2024-02-13T00:25:16.647Z,100.00
2024-02-13T00:27:43.845Z,100.00
2024-02-13T00:30:10.778Z,100.00
2024-02-13T00:32:40.774Z,100.00
2024-02-13T00:35:09.584Z,100.00
2024-02-13T00:37:37.964Z,100.00
2024-02-13T00:40:07.153Z,100.00
2024-02-13T00:42:33.990Z,100.00
2024-02-13T00:45:01.743Z,100.00
2024-02-13T00:47:31.748Z,100.00
2024-02-13T00:49:59.497Z,100.00
2024-02-13T00:52:29.644Z,100.00
2024-02-13T00:54:59.597Z,100.00
2024-02-13T00:57:26.280Z,100.00
2024-02-13T00:59:53.032Z,100.00
2024-02-13T01:02:19.682Z,100.00
2024-02-13T01:04:46.600Z,100.00
2024-02-13T01:07:13.235Z,100.00
2024-02-13T01:09:39.815Z,100.00
2024-02-13T01:12:06.731Z,100.00
2024-02-13T01:14:33.549Z,100.00
2024-02-13T01:17:02.127Z,100.00
2024-02-13T01:19:28.699Z,100.00
2024-02-13T01:21:55.355Z,100.00
2024-02-13T01:24:21.872Z,100.00
2024-02-13T01:26:48.516Z,100.00
2024-02-13T01:29:15.934Z,100.00
2024-02-13T01:31:43.087Z,100.00
2024-02-13T01:34:09.867Z,100.00
2024-02-13T01:36:39.121Z,100.00
2024-02-13T01:39:06.417Z,100.00
2024-02-13T01:41:33.015Z,100.00
2024-02-13T01:44:01.072Z,100.00
2024-02-13T01:46:29.884Z,100.00
2024-02-13T01:49:00.022Z,100.00
2024-02-13T01:51:29.545Z,100.00
2024-02-13T01:53:59.924Z,100.00
2024-02-13T01:56:31.509Z,100.00
2024-02-13T01:58:58.864Z,100.00
2024-02-13T02:01:26.135Z,100.00
2024-02-13T02:03:54.894Z,100.00
2024-02-13T02:06:22.188Z,100.00
2024-02-13T02:08:48.845Z,100.00
2024-02-13T02:11:15.624Z,100.00
2024-02-13T02:13:43.664Z,100.00
2024-02-13T02:16:10.324Z,100.00
2024-02-13T02:18:37.296Z,100.00
2024-02-13T02:21:04.148Z,100.00
2024-02-13T02:23:31.116Z,100.00
2024-02-13T02:25:57.728Z,100.00
2024-02-13T02:28:25.580Z,100.00
2024-02-13T02:30:52.442Z,100.00
2024-02-13T02:33:19.066Z,100.00
2024-02-13T02:35:45.754Z,100.00
2024-02-13T02:38:12.540Z,100.00
2024-02-13T02:40:39.127Z,100.00
2024-02-13T02:43:06.316Z,100.00
2024-02-13T02:45:33.259Z,100.00
2024-02-13T02:48:00.162Z,100.00
2024-02-13T02:50:26.753Z,100.00
2024-02-13T02:52:53.374Z,100.00
2024-02-13T02:55:19.898Z,100.00
2024-02-13T02:57:46.926Z,100.00
2024-02-13T03:00:15.546Z,100.00
2024-02-13T03:02:42.854Z,100.00
2024-02-13T03:05:12.898Z,100.00
2024-02-13T03:07:39.944Z,100.00
2024-02-13T03:10:09.990Z,100.00
2024-02-13T03:12:37.200Z,100.00
2024-02-13T03:15:04.469Z,100.00
2024-02-13T03:17:32.830Z,100.00
2024-02-13T03:19:59.521Z,100.00
2024-02-13T03:22:29.603Z,100.00
2024-02-13T03:24:56.141Z,100.00
2024-02-13T03:27:22.730Z,100.00
2024-02-13T03:29:49.439Z,100.00
2024-02-13T03:32:16.213Z,100.00
2024-02-13T03:34:42.705Z,100.00
2024-02-13T03:37:09.936Z,100.00
2024-02-13T03:39:37.462Z,100.00
2024-02-13T03:42:04.192Z,100.00
2024-02-13T03:44:30.879Z,100.00
2024-02-13T03:46:57.423Z,100.00
2024-02-13T03:49:24.066Z,100.00
2024-02-13T03:51:50.598Z,100.00
2024-02-13T03:54:17.147Z,100.00
2024-02-13T03:56:43.762Z,100.00
2024-02-13T03:59:12.078Z,100.00
2024-02-13T04:01:40.312Z,100.00
2024-02-13T04:04:06.890Z,100.00
2024-02-13T04:06:34.698Z,100.00
2024-02-13T04:09:08.349Z,100.00
2024-02-13T04:11:36.662Z,100.00
2024-02-13T04:14:03.634Z,100.00
2024-02-13T04:16:30.135Z,100.00
2024-02-13T04:18:56.690Z,100.00
2024-02-13T04:21:23.246Z,100.00
2024-02-13T04:23:50.536Z,100.00
2024-02-13T04:26:30.211Z,100.00
2024-02-13T04:29:02.913Z,100.00
2024-02-13T04:31:29.669Z,100.00
2024-02-13T04:33:56.707Z,100.00
2024-02-13T04:36:24.835Z,100.00
2024-02-13T04:38:51.584Z,100.00
2024-02-13T04:41:20.867Z,100.00
2024-02-13T04:43:47.464Z,100.00
2024-02-13T04:46:14.031Z,100.00
2024-02-13T04:48:40.821Z,100.00
2024-02-13T04:51:08.098Z,100.00
2024-02-13T04:53:34.722Z,100.00
2024-02-13T04:56:01.360Z,100.00
2024-02-13T04:58:31.860Z,100.00
2024-02-13T05:01:06.781Z,100.00
2024-02-13T05:03:49.165Z,100.00
2024-02-13T05:06:34.807Z,100.00
2024-02-13T05:09:01.575Z,100.00
2024-02-13T05:11:28.238Z,100.00
2024-02-13T05:13:57.577Z,100.00
2024-02-13T05:16:26.920Z,100.00
2024-02-13T05:18:55.235Z,100.00
2024-02-13T05:21:21.936Z,100.00
2024-02-13T05:23:49.284Z,100.00
2024-02-13T05:26:16.329Z,100.00
2024-02-13T05:28:43.727Z,100.00
2024-02-13T05:31:10.372Z,100.00
2024-02-13T05:33:37.388Z,100.00
2024-02-13T05:36:10.991Z,100.00
2024-02-13T05:38:44.167Z,100.00
2024-02-13T05:41:11.669Z,100.00
2024-02-13T05:43:40.404Z,100.00
2024-02-13T05:46:06.929Z,100.00
2024-02-13T05:48:33.527Z,100.00
2024-02-13T05:51:00.099Z,100.00
2024-02-13T05:53:28.918Z,100.00
2024-02-13T05:55:55.891Z,100.00
2024-02-13T05:58:28.876Z,100.00
2024-02-13T06:00:56.090Z,100.00
2024-02-13T06:03:23.644Z,100.00
2024-02-13T06:05:52.460Z,100.00
2024-02-13T06:08:19.985Z,100.00
2024-02-13T06:10:46.944Z,100.00
2024-02-13T06:13:15.991Z,100.00
2024-02-13T06:15:42.608Z,100.00
2024-02-13T06:18:10.824Z,100.00
2024-02-13T06:20:37.518Z,100.00
2024-02-13T06:23:04.341Z,100.00
2024-02-13T06:25:31.514Z,100.00
2024-02-13T06:27:58.155Z,100.00
2024-02-13T06:30:24.617Z,100.00
2024-02-13T06:32:52.854Z,100.00
2024-02-13T06:35:19.882Z,100.00
2024-02-13T06:37:46.361Z,100.00
2024-02-13T06:40:13.237Z,100.00
2024-02-13T06:42:39.903Z,100.00
2024-02-13T06:45:06.835Z,100.00
2024-02-13T06:47:33.499Z,100.00
2024-02-13T06:50:02.058Z,100.00
2024-02-13T06:52:28.907Z,100.00
2024-02-13T06:54:55.312Z,100.00
2024-02-13T06:57:21.715Z,100.00
2024-02-13T06:59:48.143Z,100.00
2024-02-13T07:02:14.637Z,100.00
2024-02-13T07:04:41.303Z,100.00
2024-02-13T07:07:19.379Z,100.00
2024-02-13T07:09:54.749Z,100.00
2024-02-13T07:12:21.340Z,100.00
2024-02-13T07:14:48.604Z,100.00
2024-02-13T07:17:15.211Z,100.00
2024-02-13T07:19:42.316Z,100.00
2024-02-13T07:22:09.355Z,100.00
2024-02-13T07:24:37.678Z,100.00
2024-02-13T07:27:07.220Z,100.00
2024-02-13T07:29:34.445Z,100.00
2024-02-13T07:32:04.292Z,100.00
2024-02-13T07:34:34.384Z,100.00
2024-02-13T07:37:00.883Z,100.00
2024-02-13T07:39:28.276Z,100.00
2024-02-13T07:41:54.741Z,100.00
2024-02-13T07:44:21.304Z,100.00
2024-02-13T07:46:49.332Z,100.00
2024-02-13T07:49:17.731Z,100.00
2024-02-13T07:51:45.204Z,100.00
2024-02-13T07:54:13.815Z,100.00
2024-02-13T07:56:42.167Z,100.00
2024-02-13T07:59:10.776Z,100.00
2024-02-13T08:01:38.248Z,100.00
2024-02-13T08:04:05.443Z,100.00
2024-02-13T08:06:32.655Z,100.00
2024-02-13T08:09:01.388Z,100.00
2024-02-13T08:11:27.874Z,100.00
2024-02-13T08:13:55.969Z,100.00
2024-02-13T08:16:23.432Z,100.00
2024-02-13T08:18:53.070Z,100.00
2024-02-13T08:21:19.885Z,100.00
2024-02-13T08:23:46.628Z,100.00
2024-02-13T08:26:13.136Z,100.00
2024-02-13T08:28:43.449Z,100.00
2024-02-13T08:31:10.849Z,100.00
2024-02-13T08:33:38.641Z,100.00
2024-02-13T08:36:05.541Z,100.00
2024-02-13T08:38:32.100Z,100.00
2024-02-13T08:40:58.762Z,100.00
2024-02-13T08:43:25.251Z,100.00
2024-02-13T08:45:52.676Z,100.00
2024-02-13T08:48:19.394Z,100.00
2024-02-13T08:50:46.287Z,100.00
2024-02-13T08:53:13.005Z,100.00
2024-02-13T08:55:40.412Z,100.00
2024-02-13T08:58:06.886Z,100.00
2024-02-13T09:00:33.539Z,100.00
2024-02-13T09:03:00.210Z,100.00
2024-02-13T09:05:28.106Z,100.00
2024-02-13T09:07:54.782Z,100.00
2024-02-13T09:10:21.267Z,100.00
2024-02-13T09:12:47.930Z,100.00
2024-02-13T09:15:14.634Z,100.00
2024-02-13T09:17:50.354Z,100.00
2024-02-13T09:20:17.302Z,100.00
2024-02-13T09:22:45.948Z,100.00
2024-02-13T09:25:14.211Z,100.00
2024-02-13T09:27:42.100Z,100.00
2024-02-13T09:30:09.239Z,100.00
2024-02-13T09:32:38.674Z,100.00
2024-02-13T09:35:06.070Z,100.00
2024-02-13T09:37:33.381Z,100.00
2024-02-13T09:40:00.927Z,100.00
2024-02-13T09:42:28.224Z,100.00
2024-02-13T09:44:54.728Z,100.00
2024-02-13T09:47:22.012Z,100.00
2024-02-13T09:49:48.991Z,100.00
2024-02-13T09:52:17.964Z,100.00
2024-02-13T09:54:46.105Z,100.00
2024-02-13T09:57:12.935Z,100.00
2024-02-13T09:59:40.351Z,100.00
2024-02-13T10:02:07.747Z,100.00
2024-02-13T10:04:34.252Z,100.00
2024-02-13T10:07:03.119Z,100.00
2024-02-13T10:09:30.930Z,100.00
2024-02-13T10:11:57.584Z,100.00
2024-02-13T10:14:24.230Z,100.00
2024-02-13T10:16:51.672Z,100.00
2024-02-13T10:19:22.528Z,100.00
2024-02-13T10:21:51.017Z,100.00
2024-02-13T10:24:17.974Z,100.00
2024-02-13T10:26:44.584Z,100.00
2024-02-13T10:29:11.515Z,100.00
2024-02-13T10:31:40.870Z,100.00
2024-02-13T10:34:10.753Z,100.00
2024-02-13T10:36:39.095Z,100.00
2024-02-13T10:39:10.152Z,100.00
2024-02-13T10:41:42.192Z,100.00
2024-02-13T10:44:14.429Z,100.00
2024-02-13T10:46:42.019Z,100.00
2024-02-13T10:49:51.131Z,100.00
2024-02-13T10:52:18.024Z,100.00
2024-02-13T10:54:48.476Z,100.00
2024-02-13T10:57:16.908Z,100.00
2024-02-13T10:59:46.814Z,100.00
2024-02-13T11:02:20.319Z,100.00
2024-02-13T11:04:49.487Z,100.00
2024-02-13T11:07:18.094Z,100.00
2024-02-13T11:09:45.010Z,100.00
2024-02-13T11:12:11.674Z,100.00
2024-02-13T11:14:38.432Z,99.91
2024-02-13T11:17:10.685Z,99.95
2024-02-13T11:19:45.660Z,99.96
2024-02-13T11:22:15.947Z,98.04
2024-02-13T11:24:43.943Z,100.00
2024-02-13T11:27:27.183Z,99.16
2024-02-13T11:30:01.036Z,98.58
2024-02-13T11:32:33.713Z,100.00
2024-02-13T11:35:01.001Z,97.19
2024-02-13T11:37:31.617Z,98.55
2024-02-13T11:39:59.039Z,98.57
2024-02-13T11:42:33.717Z,96.53
2024-02-13T11:45:01.526Z,95.28
2024-02-13T11:47:28.547Z,93.76
2024-02-13T11:49:56.343Z,93.64
2024-02-13T11:52:24.496Z,89.64
2024-02-13T11:54:51.829Z,88.24
2024-02-13T11:57:20.767Z,88.91
2024-02-13T12:00:06.343Z,88.09
2024-02-13T12:02:34.569Z,86.08
2024-02-13T12:05:01.528Z,87.49
2024-02-13T12:07:29.056Z,87.32
2024-02-13T12:09:56.103Z,87.66
2024-02-13T12:12:22.880Z,88.48
2024-02-13T12:14:51.469Z,89.07
2024-02-13T12:17:18.402Z,91.22
2024-02-13T12:19:45.354Z,91.75
2024-02-13T12:22:17.558Z,91.11
2024-02-13T12:24:48.608Z,90.89
2024-02-13T12:27:17.361Z,91.19
2024-02-13T12:29:45.269Z,90.66
2024-02-13T12:32:21.175Z,90.40
2024-02-13T12:34:49.348Z,92.04
2024-02-13T12:37:20.144Z,91.36
2024-02-13T12:39:48.130Z,92.16
2024-02-13T12:42:15.092Z,92.59
2024-02-13T12:44:42.047Z,92.42
2024-02-13T12:47:09.462Z,90.69
2024-02-13T12:49:38.414Z,89.24
2024-02-13T12:52:06.799Z,89.94
2024-02-13T12:54:34.175Z,91.21
2024-02-13T12:57:01.971Z,89.79
2024-02-13T12:59:29.297Z,89.98
2024-02-13T13:01:55.831Z,89.91
2024-02-13T13:04:22.745Z,89.64
2024-02-13T13:06:52.318Z,90.88
2024-02-13T13:09:27.556Z,90.43
2024-02-13T13:11:55.913Z,89.72
2024-02-13T13:14:24.565Z,88.89
2024-02-13T13:16:52.955Z,89.03
2024-02-13T13:19:23.064Z,89.25
2024-02-13T13:21:50.081Z,89.75
2024-02-13T13:24:16.912Z,89.52
2024-02-13T13:26:43.468Z,89.26
2024-02-13T13:29:10.716Z,89.92
2024-02-13T13:31:45.616Z,89.83
2024-02-13T13:34:16.921Z,90.84
2024-02-13T13:36:43.583Z,91.45
2024-02-13T13:39:10.537Z,91.30
2024-02-13T13:41:41.051Z,91.08
2024-02-13T13:44:10.156Z,91.31
2024-02-13T13:46:36.763Z,91.00
2024-02-13T13:49:03.329Z,91.69
2024-02-13T13:51:30.252Z,92.05
2024-02-13T13:53:57.395Z,91.84
2024-02-13T13:56:24.664Z,91.84
2024-02-13T13:58:52.194Z,92.20
2024-02-13T14:01:18.938Z,92.06
2024-02-13T14:03:45.497Z,92.25
2024-02-13T14:06:12.128Z,92.07
2024-02-13T14:08:39.660Z,92.82
2024-02-13T14:11:07.626Z,93.44
2024-02-13T14:13:34.357Z,92.87
2024-02-13T14:16:00.917Z,92.21
2024-02-13T14:18:27.655Z,92.35
2024-02-13T14:20:54.492Z,89.89
2024-02-13T14:23:21.671Z,90.18
2024-02-13T14:25:50.205Z,89.96
2024-02-13T14:28:16.745Z,89.05
2024-02-13T14:30:43.155Z,88.12
2024-02-13T14:33:10.346Z,88.07
2024-02-13T14:35:38.215Z,88.20
2024-02-13T14:38:07.864Z,87.89
2024-02-13T14:40:38.715Z,89.18
2024-02-13T14:43:07.880Z,88.09
2024-02-13T14:45:36.752Z,87.99
2024-02-13T14:48:04.291Z,88.41
2024-02-13T14:50:31.256Z,88.68
2024-02-13T14:52:58.680Z,89.04
2024-02-13T14:55:26.443Z,87.97
2024-02-13T14:58:00.884Z,87.17
2024-02-13T15:00:39.038Z,87.41
2024-02-13T15:03:05.951Z,86.26
2024-02-13T15:05:33.874Z,85.49
2024-02-13T15:08:00.973Z,84.71
2024-02-13T15:10:29.694Z,85.19
2024-02-13T15:12:58.845Z,85.99
2024-02-13T15:15:27.118Z,85.71
2024-02-13T15:17:54.477Z,85.38
2024-02-13T15:20:22.084Z,84.98
2024-02-13T15:22:48.844Z,86.17
2024-02-13T15:25:15.795Z,84.89
2024-02-13T15:27:42.338Z,84.91
2024-02-13T15:30:13.239Z,84.95
2024-02-13T15:32:41.398Z,85.36
2024-02-13T15:35:10.622Z,85.28
2024-02-13T15:37:56.387Z,85.81
2024-02-13T15:40:41.689Z,85.99
2024-02-13T15:43:26.857Z,84.43
2024-02-13T15:46:19.426Z,84.44
2024-02-13T15:48:48.160Z,84.86
2024-02-13T15:51:15.956Z,84.95
2024-02-13T15:53:43.077Z,85.03
2024-02-13T15:56:11.178Z,85.15
2024-02-13T15:58:39.946Z,83.88
2024-02-13T16:01:07.036Z,84.20
2024-02-13T16:03:37.410Z,84.93
2024-02-13T16:06:04.312Z,84.92
2024-02-13T16:08:31.474Z,85.21
2024-02-13T16:10:58.901Z,85.91
2024-02-13T16:13:27.665Z,86.43
2024-02-13T16:15:55.616Z,85.83
2024-02-13T16:18:23.854Z,86.42
2024-02-13T16:20:50.515Z,86.46
2024-02-13T16:23:17.029Z,86.39
2024-02-13T16:25:43.654Z,86.89
2024-02-13T16:28:10.148Z,86.75
2024-02-13T16:30:37.389Z,87.42
2024-02-13T16:33:05.224Z,88.30
2024-02-13T16:35:32.154Z,88.63
2024-02-13T16:37:58.780Z,89.11
2024-02-13T16:40:27.768Z,89.32
2024-02-13T16:42:56.828Z,88.92
2024-02-13T16:45:25.803Z,88.60
2024-02-13T16:47:55.346Z,89.13
2024-02-13T16:50:21.990Z,89.75
2024-02-13T16:52:49.927Z,89.52
2024-02-13T16:55:18.300Z,89.03
2024-02-13T16:57:46.259Z,89.41
2024-02-13T17:00:13.726Z,89.65
2024-02-13T17:02:40.912Z,89.39
2024-02-13T17:05:12.975Z,89.61
2024-02-13T17:07:40.870Z,90.10
2024-02-13T17:10:15.047Z,90.85
2024-02-13T17:12:42.439Z,91.42
2024-02-13T17:15:10.921Z,92.66
2024-02-13T17:17:41.968Z,93.87
2024-02-13T17:20:12.017Z,94.49
2024-02-13T17:22:39.794Z,95.18
2024-02-13T17:25:09.114Z,95.41
2024-02-13T17:27:35.636Z,96.24
2024-02-13T17:30:02.116Z,97.12
2024-02-13T17:32:28.669Z,97.49
2024-02-13T17:34:55.249Z,98.35
2024-02-13T17:37:22.105Z,99.05
2024-02-13T17:39:48.599Z,99.88
2024-02-13T17:42:15.006Z,100.00
2024-02-13T17:44:42.470Z,100.00
2024-02-13T17:47:08.962Z,100.00
2024-02-13T17:49:35.998Z,100.00
2024-02-13T17:52:03.725Z,100.00
2024-02-13T17:54:30.358Z,100.00
2024-02-13T17:56:56.885Z,100.00
2024-02-13T17:59:26.143Z,100.00
2024-02-13T18:01:53.558Z,100.00
2024-02-13T18:04:21.667Z,100.00
2024-02-13T18:06:49.195Z,100.00
2024-02-13T18:09:15.838Z,100.00
2024-02-13T18:11:42.650Z,100.00
2024-02-13T18:14:11.080Z,100.00
2024-02-13T18:16:37.588Z,100.00
2024-02-13T18:19:06.865Z,100.00
2024-02-13T18:21:34.156Z,100.00
2024-02-13T18:24:02.570Z,100.00
2024-02-13T18:26:29.861Z,100.00
2024-02-13T18:28:56.531Z,100.00
2024-02-13T18:31:23.266Z,100.00
2024-02-13T18:33:51.768Z,100.00
2024-02-13T18:36:19.033Z,100.00
2024-02-13T18:38:45.630Z,100.00
2024-02-13T18:41:12.379Z,100.00
2024-02-13T18:43:38.934Z,100.00
2024-02-13T18:46:05.504Z,100.00
2024-02-13T18:48:32.800Z,100.00
2024-02-13T18:51:00.632Z,100.00
2024-02-13T18:53:31.654Z,100.00
2024-02-13T18:55:58.565Z,100.00
2024-02-13T18:58:25.668Z,100.00
2024-02-13T19:00:52.224Z,100.00
2024-02-13T19:03:21.203Z,100.00
2024-02-13T19:05:49.349Z,100.00
2024-02-13T19:08:16.143Z,100.00
2024-02-13T19:10:42.905Z,100.00
2024-02-13T19:13:09.644Z,100.00
2024-02-13T19:15:36.533Z,100.00
2024-02-13T19:18:03.966Z,100.00
2024-02-13T19:20:30.499Z,100.00
2024-02-13T19:22:57.462Z,100.00
2024-02-13T19:25:23.867Z,100.00
2024-02-13T19:27:50.912Z,100.00
2024-02-13T19:30:17.551Z,100.00
2024-02-13T19:32:44.120Z,100.00
2024-02-13T19:35:10.650Z,100.00
2024-02-13T19:37:37.900Z,100.00
2024-02-13T19:40:05.379Z,100.00
2024-02-13T19:42:31.950Z,100.00
2024-02-13T19:44:58.425Z,100.00
2024-02-13T19:47:25.065Z,100.00
2024-02-13T19:49:56.111Z,100.00
2024-02-13T19:52:22.896Z,100.00
2024-02-13T19:54:49.447Z,100.00
2024-02-13T19:57:16.204Z,100.00
2024-02-13T19:59:42.743Z,100.00
2024-02-13T20:02:09.292Z,100.00
2024-02-13T20:04:35.710Z,100.00
2024-02-13T20:07:02.249Z,100.00
2024-02-13T20:09:29.512Z,100.00
2024-02-13T20:11:55.986Z,100.00
2024-02-13T20:14:22.488Z,100.00
2024-02-13T20:16:49.006Z,100.00
2024-02-13T20:19:15.862Z,100.00
2024-02-13T20:21:43.586Z,100.00
2024-02-13T20:24:11.899Z,100.00
2024-02-13T20:26:39.141Z,100.00
2024-02-13T20:29:07.329Z,100.00
2024-02-13T20:31:33.898Z,100.00
2024-02-13T20:34:01.093Z,100.00
2024-02-13T20:36:27.697Z,100.00
2024-02-13T20:38:54.437Z,100.00
2024-02-13T20:41:22.124Z,100.00
2024-02-13T20:43:48.615Z,100.00
2024-02-13T20:46:16.937Z,100.00
2024-02-13T20:48:43.557Z,100.00
2024-02-13T20:51:10.307Z,100.00
2024-02-13T20:53:36.789Z,100.00
2024-02-13T20:56:04.917Z,100.00
2024-02-13T20:58:34.977Z,100.00
2024-02-13T21:01:01.742Z,100.00
2024-02-13T21:03:28.400Z,100.00
2024-02-13T21:05:55.899Z,100.00
2024-02-13T21:08:22.692Z,100.00
2024-02-13T21:10:51.095Z,100.00
2024-02-13T21:13:18.616Z,100.00
2024-02-13T21:15:45.248Z,100.00
2024-02-13T21:18:11.799Z,100.00
2024-02-13T21:20:43.639Z,100.00
2024-02-13T21:23:29.433Z,100.00
2024-02-13T21:25:56.782Z,100.00
2024-02-13T21:28:25.733Z,100.00
2024-02-13T21:30:53.078Z,100.00
2024-02-13T21:33:20.311Z,100.00
2024-02-13T21:35:47.122Z,100.00
2024-02-13T21:38:14.862Z,100.00
2024-02-13T21:40:42.394Z,100.00
2024-02-13T21:43:09.543Z,100.00
2024-02-13T21:45:37.124Z,100.00
2024-02-13T21:48:05.043Z,100.00
2024-02-13T21:50:31.976Z,100.00
2024-02-13T21:52:58.480Z,100.00
2024-02-13T21:55:25.591Z,100.00
2024-02-13T21:57:52.193Z,100.00
2024-02-13T22:00:18.975Z,100.00
2024-02-13T22:02:46.516Z,100.00
2024-02-13T22:05:13.231Z,100.00
2024-02-13T22:07:39.804Z,100.00
2024-02-13T22:10:07.155Z,100.00
2024-02-13T22:12:33.795Z,100.00
2024-02-13T22:15:00.385Z,100.00
2024-02-13T22:17:27.136Z,100.00
2024-02-13T22:19:53.881Z,100.00
2024-02-13T22:22:20.451Z,100.00
2024-02-13T22:24:51.860Z,100.00
2024-02-13T22:27:22.514Z,100.00
2024-02-13T22:29:49.242Z,100.00
2024-02-13T22:32:16.084Z,100.00
2024-02-13T22:34:42.972Z,100.00
2024-02-13T22:37:10.640Z,100.00
2024-02-13T22:39:37.068Z,100.00
2024-02-13T22:42:04.038Z,100.00
2024-02-13T22:44:30.689Z,100.00
2024-02-13T22:46:57.564Z,100.00
2024-02-13T22:49:24.139Z,100.00
2024-02-13T22:51:50.798Z,100.00
2024-02-13T22:54:17.283Z,100.00
2024-02-13T22:56:44.461Z,100.00
2024-02-13T22:59:11.017Z,100.00
2024-02-13T23:01:37.840Z,100.00
2024-02-13T23:04:05.855Z,100.00
2024-02-13T23:06:33.142Z,100.00
2024-02-13T23:09:04.796Z,100.00
2024-02-13T23:11:32.987Z,100.00
2024-02-13T23:13:59.685Z,100.00
2024-02-13T23:16:26.292Z,100.00
2024-02-13T23:18:55.200Z,100.00
2024-02-13T23:21:22.229Z,100.00
2024-02-13T23:23:48.925Z,100.00
2024-02-13T23:26:15.697Z,100.00
2024-02-13T23:28:49.209Z,100.00
2024-02-13T23:31:22.953Z,100.00
2024-02-13T23:33:49.606Z,100.00
2024-02-13T23:36:16.517Z,100.00
2024-02-13T23:38:44.700Z,100.00
2024-02-13T23:41:11.307Z,100.00
2024-02-13T23:43:37.943Z,100.00
2024-02-13T23:46:04.590Z,100.00
2024-02-13T23:48:31.251Z,100.00
2024-02-13T23:50:57.903Z,100.00
2024-02-13T23:53:24.981Z,100.00
2024-02-13T23:55:51.672Z,100.00
2024-02-13T23:58:18.473Z,100.00
